createdAt,value
2022-10-21T00:01:34.762Z,59.33
2022-10-21T00:04:06.452Z,59.35
2022-10-21T00:06:37.856Z,59.33
2022-10-21T00:09:09.393Z,59.36
2022-10-21T00:11:40.980Z,59.31
2022-10-21T00:14:12.489Z,59.43
2022-10-21T00:16:43.999Z,59.50
2022-10-21T00:19:15.447Z,59.59
2022-10-21T00:21:46.843Z,59.67
2022-10-21T00:24:18.254Z,59.68
2022-10-21T00:26:52.105Z,59.59
2022-10-21T00:29:23.564Z,59.80
2022-10-21T00:31:56.818Z,59.90
2022-10-21T00:34:30.764Z,59.99
2022-10-21T00:37:02.986Z,59.93
2022-10-21T00:39:34.647Z,60.04
2022-10-21T00:42:08.016Z,59.96
2022-10-21T00:44:41.207Z,60.21
2022-10-21T00:47:18.355Z,60.28
2022-10-21T00:49:56.020Z,60.16
2022-10-21T00:52:28.923Z,60.27
2022-10-21T00:55:04.174Z,60.31
2022-10-21T00:57:37.938Z,60.40
2022-10-21T01:00:13.698Z,60.68
2022-10-21T01:02:45.914Z,60.60
2022-10-21T01:05:18.629Z,60.65
2022-10-21T01:07:52.087Z,60.64
2022-10-21T01:10:23.596Z,60.64
2022-10-21T01:13:16.936Z,60.71
2022-10-21T01:15:56.447Z,60.75
2022-10-21T01:18:36.937Z,60.80
2022-10-21T01:21:40.485Z,60.80
2022-10-21T01:24:47.965Z,60.71
2022-10-21T01:27:37.427Z,60.73
2022-10-21T01:30:20.767Z,60.52
2022-10-21T01:33:11.794Z,60.67
2022-10-21T01:35:50.315Z,60.67
2022-10-21T01:38:45.515Z,60.74
2022-10-21T01:41:26.191Z,60.73
2022-10-21T01:44:06.890Z,60.71
2022-10-21T01:46:45.839Z,60.79
2022-10-21T01:49:25.766Z,60.85
2022-10-21T01:51:58.011Z,60.91
2022-10-21T01:54:33.555Z,60.95
2022-10-21T01:57:07.504Z,61.02
2022-10-21T01:59:43.902Z,61.06
2022-10-21T02:02:17.210Z,61.16
2022-10-21T02:04:51.785Z,61.17
2022-10-21T02:07:23.271Z,61.26
2022-10-21T02:09:54.683Z,61.22
2022-10-21T02:12:29.789Z,61.30
2022-10-21T02:15:03.882Z,61.43
2022-10-21T02:17:40.175Z,61.44
2022-10-21T02:20:14.873Z,61.39
2022-10-21T02:22:47.981Z,61.44
2022-10-21T02:25:22.627Z,61.54
2022-10-21T02:27:55.943Z,61.57
2022-10-21T02:30:29.927Z,61.66
2022-10-21T02:33:07.062Z,61.70
2022-10-21T02:35:45.175Z,61.70
2022-10-21T02:38:23.782Z,61.70
2022-10-21T02:41:00.919Z,61.74
2022-10-21T02:43:37.688Z,61.83
2022-10-21T02:46:12.639Z,61.92
2022-10-21T02:48:48.367Z,61.86
2022-10-21T02:51:20.028Z,61.82
2022-10-21T02:53:51.500Z,61.68
2022-10-21T02:56:22.949Z,61.57
2022-10-21T02:58:54.540Z,61.88
2022-10-21T03:01:26.058Z,61.92
2022-10-21T03:03:57.687Z,61.97
2022-10-21T03:06:29.167Z,62.03
2022-10-21T03:09:00.621Z,62.11
2022-10-21T03:11:32.247Z,62.05
2022-10-21T03:14:03.809Z,62.13
2022-10-21T03:16:35.261Z,62.16
2022-10-21T03:19:06.687Z,62.02
2022-10-21T03:21:38.186Z,62.06
2022-10-21T03:24:15.436Z,62.20
2022-10-21T03:26:51.315Z,62.39
2022-10-21T03:29:22.689Z,62.35
2022-10-21T03:31:54.202Z,62.41
2022-10-21T03:34:25.630Z,62.42
2022-10-21T03:36:57.060Z,62.56
2022-10-21T03:39:28.507Z,62.55
2022-10-21T03:42:00.020Z,62.65
2022-10-21T03:44:31.469Z,62.65
2022-10-21T03:47:02.952Z,62.81
2022-10-21T03:52:07.225Z,62.92
2022-10-21T03:54:38.806Z,62.88
2022-10-21T03:57:10.336Z,62.91
2022-10-21T03:59:41.755Z,63.01
2022-10-21T04:02:13.149Z,63.03
2022-10-21T04:04:44.576Z,63.01
2022-10-21T04:07:15.983Z,62.93
2022-10-21T04:09:47.417Z,62.94
2022-10-21T04:12:18.972Z,62.98
2022-10-21T04:14:50.589Z,62.96
2022-10-21T04:17:22.598Z,62.97
2022-10-21T04:19:54.035Z,62.85
2022-10-21T04:22:25.509Z,63.03
2022-10-21T04:24:59.693Z,62.98
2022-10-21T04:27:33.975Z,63.07
2022-10-21T04:30:06.823Z,63.08
2022-10-21T04:32:38.469Z,63.08
2022-10-21T04:35:10.934Z,63.08
2022-10-21T04:37:43.339Z,63.11
2022-10-21T04:40:15.178Z,63.08
2022-10-21T04:42:52.473Z,63.13
2022-10-21T04:45:24.016Z,63.28
2022-10-21T04:47:55.453Z,63.29
2022-10-21T04:50:27.195Z,63.33
2022-10-21T04:52:58.990Z,63.52
2022-10-21T04:55:30.381Z,63.42
2022-10-21T04:58:01.873Z,63.58
2022-10-21T05:00:33.477Z,63.70
2022-10-21T05:03:05.210Z,63.72
2022-10-21T05:05:36.598Z,63.69
2022-10-21T05:08:11.509Z,63.65
2022-10-21T05:10:43.902Z,63.82
2022-10-21T05:13:16.623Z,63.84
2022-10-21T05:15:48.202Z,63.77
2022-10-21T05:18:19.753Z,63.77
2022-10-21T05:20:55.294Z,63.88
2022-10-21T05:23:28.093Z,63.90
2022-10-21T05:25:59.623Z,63.90
2022-10-21T05:28:31.032Z,63.85
2022-10-21T05:31:03.977Z,63.77
2022-10-21T05:33:35.491Z,63.77
2022-10-21T05:36:08.666Z,63.79
2022-10-21T05:38:40.163Z,63.87
2022-10-21T05:41:12.245Z,63.68
2022-10-21T05:43:43.727Z,63.83
2022-10-21T05:46:15.286Z,63.88
2022-10-21T05:51:27.043Z,64.23
2022-10-21T05:53:59.699Z,64.23
2022-10-21T05:56:31.193Z,64.34
2022-10-21T05:59:05.449Z,64.21
2022-10-21T06:01:40.345Z,64.20
2022-10-21T06:04:11.805Z,64.29
2022-10-21T06:06:43.244Z,64.37
2022-10-21T06:09:14.813Z,64.55
2022-10-21T06:11:46.706Z,64.64
2022-10-21T06:14:19.969Z,64.64
2022-10-21T06:16:51.398Z,64.74
2022-10-21T06:19:22.873Z,64.65
2022-10-21T06:21:54.593Z,64.68
2022-10-21T06:24:27.589Z,64.63
2022-10-21T06:26:58.990Z,64.64
2022-10-21T06:29:30.618Z,64.74
2022-10-21T06:32:02.062Z,64.78
2022-10-21T06:34:33.732Z,64.76
2022-10-21T06:37:05.220Z,64.77
2022-10-21T06:39:36.704Z,64.54
2022-10-21T06:42:08.178Z,64.47
2022-10-21T06:44:40.677Z,64.68
2022-10-21T06:47:12.348Z,64.70
2022-10-21T06:49:43.807Z,64.70
2022-10-21T06:52:15.369Z,64.90
2022-10-21T06:54:47.138Z,65.25
2022-10-21T06:57:18.531Z,65.46
2022-10-21T06:59:50.865Z,65.43
2022-10-21T07:02:24.301Z,65.43
2022-10-21T07:04:57.790Z,65.41
2022-10-21T07:07:27.728Z,65.39
2022-10-21T07:09:59.237Z,65.22
2022-10-21T07:12:31.950Z,65.06
2022-10-21T07:15:03.433Z,64.97
2022-10-21T07:17:34.937Z,64.82
2022-10-21T07:20:07.859Z,64.93
2022-10-21T07:22:39.304Z,64.94
2022-10-21T07:25:13.708Z,65.01
2022-10-21T07:27:47.589Z,64.90
2022-10-21T07:30:23.714Z,63.98
2022-10-21T07:32:55.144Z,63.05
2022-10-21T07:35:26.661Z,62.86
2022-10-21T07:37:58.115Z,62.65
2022-10-21T07:40:30.218Z,62.55
2022-10-21T07:43:01.755Z,62.40
2022-10-21T07:45:33.253Z,62.51
2022-10-21T07:48:04.710Z,62.70
2022-10-21T07:50:36.163Z,62.72
2022-10-21T07:53:12.337Z,62.88
2022-10-21T07:55:44.502Z,62.97
2022-10-21T07:58:15.951Z,63.07
2022-10-21T08:00:48.054Z,62.83
2022-10-21T08:03:19.468Z,62.67
2022-10-21T08:05:52.084Z,62.26
2022-10-21T08:08:23.768Z,62.08
2022-10-21T08:10:56.457Z,62.24
2022-10-21T08:13:28.235Z,62.42
2022-10-21T08:16:00.046Z,62.05
2022-10-21T08:18:31.858Z,61.81
2022-10-21T08:21:05.640Z,61.79
2022-10-21T08:23:38.305Z,61.61
2022-10-21T08:26:18.067Z,61.50
2022-10-21T08:28:49.595Z,61.44
2022-10-21T08:31:23.176Z,61.32
2022-10-21T08:33:53.446Z,60.91
2022-10-21T08:36:26.523Z,60.57
2022-10-21T08:38:59.510Z,60.36
2022-10-21T08:41:46.769Z,60.05
2022-10-21T08:44:30.008Z,60.37
2022-10-21T08:49:50.081Z,59.48
2022-10-21T08:52:27.990Z,59.34
2022-10-21T08:55:02.818Z,59.54
2022-10-21T08:57:36.017Z,59.09
2022-10-21T09:00:16.740Z,58.11
2022-10-21T09:03:00.927Z,58.02
2022-10-21T09:05:45.227Z,57.72
2022-10-21T09:08:19.408Z,57.81
2022-10-21T09:11:03.944Z,57.73
2022-10-21T09:13:53.673Z,58.07
2022-10-21T09:16:37.784Z,58.08
2022-10-21T09:19:18.527Z,58.28
2022-10-21T09:22:33.248Z,58.22
2022-10-21T09:25:04.846Z,58.41
2022-10-21T09:27:55.020Z,58.63
2022-10-21T09:30:27.951Z,58.89
2022-10-21T09:33:01.528Z,58.93
2022-10-21T09:35:34.998Z,59.07
2022-10-21T09:38:17.998Z,59.21
2022-10-21T09:40:59.247Z,59.20
2022-10-21T09:43:32.336Z,59.30
2022-10-21T09:46:04.922Z,59.36
2022-10-21T09:49:08.130Z,59.36
2022-10-21T09:51:40.246Z,59.35
2022-10-21T09:54:16.015Z,59.16
2022-10-21T09:56:51.816Z,59.28
2022-10-21T09:59:29.097Z,59.56
2022-10-21T10:02:16.036Z,59.55
2022-10-21T10:04:48.706Z,59.56
2022-10-21T10:07:33.038Z,59.62
2022-10-21T10:10:28.957Z,59.67
2022-10-21T10:13:01.553Z,59.70
2022-10-21T10:15:38.692Z,59.63
2022-10-21T10:18:23.175Z,59.72
2022-10-21T10:21:11.764Z,59.75
2022-10-21T10:23:49.061Z,59.75
2022-10-21T10:26:33.281Z,59.83
2022-10-21T10:29:11.630Z,59.75
2022-10-21T10:31:50.917Z,59.63
2022-10-21T10:34:28.367Z,59.70
2022-10-21T10:37:06.863Z,59.75
2022-10-21T10:39:40.493Z,59.62
2022-10-21T10:42:17.361Z,59.54
2022-10-21T10:44:52.803Z,59.51
2022-10-21T10:47:29.064Z,59.58
2022-10-21T10:50:00.704Z,59.52
2022-10-21T10:52:32.743Z,59.68
2022-10-21T10:55:24.332Z,59.65
2022-10-21T10:58:12.769Z,59.70
2022-10-21T11:00:51.090Z,59.69
2022-10-21T11:03:28.507Z,59.61
2022-10-21T11:06:08.109Z,59.57
2022-10-21T11:08:46.897Z,59.60
2022-10-21T11:11:23.581Z,59.41
2022-10-21T11:13:55.779Z,59.13
2022-10-21T11:17:00.707Z,59.17
2022-10-21T11:19:42.593Z,59.26
2022-10-21T11:22:29.626Z,58.97
2022-10-21T11:25:07.233Z,58.98
2022-10-21T11:27:53.158Z,58.91
2022-10-21T11:30:32.752Z,58.83
2022-10-21T11:33:20.167Z,58.73
2022-10-21T11:36:04.216Z,58.69
2022-10-21T11:38:40.644Z,58.74
2022-10-21T11:41:28.255Z,58.54
2022-10-21T11:44:13.001Z,58.28
2022-10-21T11:46:59.452Z,58.08
2022-10-21T11:49:46.721Z,57.95
2022-10-21T11:52:33.644Z,57.82
2022-10-21T11:55:39.036Z,57.70
2022-10-21T11:58:23.779Z,57.42
2022-10-21T12:01:09.796Z,57.12
2022-10-21T12:04:20.580Z,57.10
2022-10-21T12:07:02.359Z,56.89
2022-10-21T12:09:41.358Z,56.97
2022-10-21T12:12:16.071Z,56.63
2022-10-21T12:14:51.107Z,56.44
2022-10-21T12:17:24.194Z,56.37
2022-10-21T12:20:00.419Z,56.34
2022-10-21T12:22:34.911Z,56.17
2022-10-21T12:25:20.774Z,56.20
2022-10-21T12:28:00.463Z,56.29
2022-10-21T12:30:40.323Z,56.19
2022-10-21T12:33:18.995Z,56.08
2022-10-21T12:35:54.936Z,56.08
2022-10-21T12:38:44.289Z,56.03
2022-10-21T12:41:31.755Z,56.22
2022-10-21T12:44:14.769Z,56.17
2022-10-21T12:46:48.145Z,56.19
2022-10-21T12:49:30.587Z,55.98
2022-10-21T12:52:15.089Z,55.84
2022-10-21T12:54:56.948Z,55.74
2022-10-21T12:57:31.621Z,55.88
2022-10-21T13:00:49.270Z,55.85
2022-10-21T13:03:43.763Z,55.75
2022-10-21T13:06:16.061Z,55.82
2022-10-21T13:08:56.372Z,55.80
2022-10-21T13:11:40.998Z,55.76
2022-10-21T13:14:41.526Z,55.65
2022-10-21T13:17:31.252Z,55.78
2022-10-21T13:20:38.597Z,55.79
2022-10-21T13:23:44.501Z,55.72
2022-10-21T13:26:22.022Z,55.78
2022-10-21T13:29:09.412Z,55.76
2022-10-21T13:31:44.281Z,55.74
2022-10-21T13:34:30.218Z,55.81
2022-10-21T13:37:01.875Z,55.71
2022-10-21T13:39:37.119Z,55.82
2022-10-21T13:42:16.858Z,55.78
2022-10-21T13:45:03.966Z,55.62
2022-10-21T13:47:36.456Z,55.66
2022-10-21T13:50:18.301Z,55.54
2022-10-21T13:52:51.036Z,55.74
2022-10-21T13:55:25.573Z,55.48
2022-10-21T13:57:58.605Z,55.54
2022-10-21T14:00:33.188Z,55.52
2022-10-21T14:03:07.079Z,55.55
2022-10-21T14:05:47.490Z,55.52
2022-10-21T14:08:26.963Z,55.55
2022-10-21T14:11:03.145Z,55.57
2022-10-21T14:13:38.489Z,55.59
2022-10-21T14:16:11.371Z,55.67
2022-10-21T14:18:48.171Z,55.68
2022-10-21T14:21:23.863Z,55.76
2022-10-21T14:23:55.614Z,55.76
2022-10-21T14:26:31.043Z,55.77
2022-10-21T14:29:04.230Z,55.72
2022-10-21T14:31:36.068Z,55.73
2022-10-21T14:34:09.943Z,55.77
2022-10-21T14:37:02.505Z,55.86
2022-10-21T14:39:34.607Z,55.94
2022-10-21T14:42:09.997Z,56.00
2022-10-21T14:44:45.526Z,56.04
2022-10-21T14:47:24.330Z,55.97
2022-10-21T14:49:59.836Z,56.07
2022-10-21T14:52:37.668Z,56.14
2022-10-21T14:55:15.360Z,56.16
2022-10-21T14:57:49.400Z,56.26
2022-10-21T15:00:30.238Z,56.40
2022-10-21T15:03:03.394Z,56.49
2022-10-21T15:05:38.679Z,56.60
2022-10-21T15:08:33.179Z,56.66
2022-10-21T15:11:32.204Z,56.83
2022-10-21T15:14:24.162Z,56.82
2022-10-21T15:16:58.069Z,57.09
2022-10-21T15:19:35.012Z,57.05
2022-10-21T15:22:19.773Z,57.07
2022-10-21T15:24:52.671Z,57.30
2022-10-21T15:27:32.845Z,57.37
2022-10-21T15:30:18.812Z,57.54
2022-10-21T15:32:51.179Z,57.67
2022-10-21T15:35:24.051Z,57.65
2022-10-21T15:37:56.856Z,57.71
2022-10-21T15:40:28.506Z,57.84
2022-10-21T15:43:00.264Z,57.91
2022-10-21T15:45:32.022Z,58.00
2022-10-21T15:48:03.588Z,58.11
2022-10-21T15:50:36.876Z,58.11
2022-10-21T15:53:08.543Z,58.21
2022-10-21T15:55:42.656Z,58.32
2022-10-21T15:58:15.342Z,58.42
2022-10-21T16:00:47.333Z,58.53
2022-10-21T16:03:19.245Z,58.61
2022-10-21T16:05:51.239Z,58.72
2022-10-21T16:08:22.898Z,58.75
2022-10-21T16:10:54.557Z,58.77
2022-10-21T16:13:26.206Z,58.81
2022-10-21T16:15:57.973Z,58.83
2022-10-21T16:18:29.519Z,58.75
2022-10-21T16:21:01.188Z,58.78
2022-10-21T16:23:32.945Z,58.77
2022-10-21T16:26:04.603Z,58.77
2022-10-21T16:28:36.351Z,58.75
2022-10-21T16:31:10.381Z,58.78
2022-10-21T16:33:42.238Z,58.67
2022-10-21T16:36:19.475Z,58.73
2022-10-21T16:38:52.643Z,58.80
2022-10-21T16:41:29.544Z,58.75
2022-10-21T16:44:01.253Z,58.80
2022-10-21T16:46:36.423Z,58.82
2022-10-21T16:49:13.774Z,58.87
2022-10-21T16:51:47.990Z,58.92
2022-10-21T16:54:20.584Z,58.89
2022-10-21T16:56:55.109Z,58.94
2022-10-21T16:59:27.822Z,58.99
2022-10-21T17:02:01.907Z,59.04
2022-10-21T17:04:33.557Z,59.14
2022-10-21T17:07:05.314Z,59.13
2022-10-21T17:09:37.078Z,59.03
2022-10-21T17:12:11.177Z,59.14
2022-10-21T17:14:43.871Z,59.13
2022-10-21T17:17:17.870Z,59.21
2022-10-21T17:19:50.562Z,59.20
2022-10-21T17:22:24.881Z,59.09
2022-10-21T17:24:56.540Z,59.21
2022-10-21T17:27:28.132Z,59.18
2022-10-21T17:29:59.741Z,59.18
2022-10-21T17:32:31.486Z,59.20
2022-10-21T17:35:03.255Z,59.18
2022-10-21T17:37:34.921Z,59.22
2022-10-21T17:40:08.706Z,59.20
2022-10-21T17:42:39.143Z,59.31
2022-10-21T17:45:14.655Z,59.35
2022-10-21T17:47:49.942Z,59.51
2022-10-21T17:50:26.536Z,59.39
2022-10-21T17:52:58.169Z,59.38
2022-10-21T17:55:29.752Z,59.36
2022-10-21T17:58:01.586Z,59.24
2022-10-21T18:00:33.246Z,59.34
2022-10-21T18:03:04.903Z,59.25
2022-10-21T18:05:36.674Z,59.17
2022-10-21T18:08:08.775Z,59.31
2022-10-21T18:10:40.389Z,59.38
2022-10-21T18:13:14.198Z,59.41
2022-10-21T18:15:44.227Z,59.54
2022-10-21T18:18:16.831Z,59.57
2022-10-21T18:20:48.969Z,59.64
2022-10-21T18:23:20.640Z,59.64
2022-10-21T18:25:52.286Z,59.52
2022-10-21T18:28:24.048Z,59.54
2022-10-21T18:30:55.719Z,59.71
2022-10-21T18:33:27.465Z,59.94
2022-10-21T18:36:07.837Z,59.96
2022-10-21T18:38:40.526Z,60.22
2022-10-21T18:41:20.065Z,60.24
2022-10-21T18:43:56.443Z,60.18
2022-10-21T18:46:28.296Z,60.28
2022-10-21T18:49:00.658Z,60.44
2022-10-21T18:51:32.839Z,60.40
2022-10-21T18:54:05.411Z,60.66
2022-10-21T18:56:37.588Z,60.65
2022-10-21T18:59:10.158Z,60.83
2022-10-21T19:01:42.060Z,60.89
2022-10-21T19:06:50.451Z,60.85
2022-10-21T19:09:25.885Z,61.04
2022-10-21T19:11:59.909Z,61.36
2022-10-21T19:14:32.599Z,61.32
2022-10-21T19:17:04.492Z,61.40
2022-10-21T19:19:39.369Z,61.31
2022-10-21T19:22:12.579Z,61.55
2022-10-21T19:24:44.352Z,61.42
2022-10-21T19:27:16.207Z,61.55
2022-10-21T19:29:47.861Z,61.64
2022-10-21T19:32:19.530Z,61.61
2022-10-21T19:34:51.495Z,61.73
2022-10-21T19:37:23.151Z,61.84
2022-10-21T19:39:54.799Z,61.87
2022-10-21T19:42:27.136Z,61.97
2022-10-21T19:44:58.766Z,62.10
2022-10-21T19:47:31.688Z,62.07
2022-10-21T19:50:03.468Z,62.14
2022-10-21T19:52:35.241Z,62.13
2022-10-21T19:55:08.141Z,62.22
2022-10-21T19:57:39.794Z,62.23
2022-10-21T20:00:13.746Z,62.43
2022-10-21T20:02:45.359Z,62.51
2022-10-21T20:05:17.222Z,62.66
2022-10-21T20:07:48.887Z,62.74
2022-10-21T20:10:23.010Z,62.90
2022-10-21T20:12:54.660Z,62.91
2022-10-21T20:15:28.790Z,63.02
2022-10-21T20:18:00.423Z,63.00
2022-10-21T20:20:32.221Z,63.08
2022-10-21T20:23:03.953Z,63.13
2022-10-21T20:25:35.704Z,63.23
2022-10-21T20:28:07.466Z,63.29
2022-10-21T20:30:39.129Z,63.34
2022-10-21T20:33:10.732Z,63.17
2022-10-21T20:35:45.413Z,63.05
2022-10-21T20:38:17.069Z,63.13
2022-10-21T20:40:55.975Z,63.01
2022-10-21T20:43:27.652Z,63.06
2022-10-21T20:46:03.088Z,63.01
2022-10-21T20:48:36.689Z,63.18
2022-10-21T20:51:10.292Z,63.12
2022-10-21T20:53:44.813Z,63.23
2022-10-21T20:56:16.817Z,63.26
2022-10-21T20:58:48.883Z,63.25
2022-10-21T21:01:24.514Z,63.38
2022-10-21T21:03:57.788Z,63.43
2022-10-21T21:06:29.809Z,63.48
2022-10-21T21:09:29.354Z,63.52
2022-10-21T21:11:52.775Z,63.61
2022-10-21T21:14:25.202Z,63.49
2022-10-21T21:16:57.114Z,63.49
2022-10-21T21:19:28.731Z,63.48
2022-10-21T21:22:00.196Z,63.41
2022-10-21T21:24:31.681Z,63.40
2022-10-21T21:27:03.124Z,63.45
2022-10-21T21:29:35.732Z,63.47
2022-10-21T21:32:08.134Z,63.40
2022-10-21T21:34:39.597Z,63.40
2022-10-21T21:37:11.037Z,63.38
2022-10-21T21:39:42.491Z,63.28
2022-10-21T21:42:13.925Z,63.35
2022-10-21T21:44:45.434Z,63.25
2022-10-21T21:47:17.083Z,63.39
2022-10-21T21:49:48.605Z,63.33
2022-10-21T21:52:20.174Z,63.42
2022-10-21T21:54:54.453Z,63.43
2022-10-21T21:57:28.257Z,63.44
2022-10-21T22:00:00.495Z,63.48
2022-10-21T22:02:32.125Z,63.48
2022-10-21T22:05:03.566Z,63.55
2022-10-21T22:07:35.142Z,63.59
2022-10-21T22:10:07.981Z,63.56
2022-10-21T22:12:39.543Z,63.65
2022-10-21T22:15:29.636Z,63.57
2022-10-21T22:18:05.923Z,63.72
2022-10-21T22:20:38.838Z,63.71
2022-10-21T22:23:10.412Z,63.70
2022-10-21T22:25:41.844Z,63.70
2022-10-21T22:28:13.380Z,63.75
2022-10-21T22:30:44.821Z,63.80
2022-10-21T22:33:16.205Z,63.88
2022-10-21T22:35:47.726Z,63.79
2022-10-21T22:38:19.218Z,63.94
2022-10-21T22:40:58.520Z,63.96
2022-10-21T22:43:31.196Z,63.96
2022-10-21T22:46:09.635Z,63.93
2022-10-21T22:48:46.686Z,64.00
2022-10-21T22:51:18.116Z,63.99
2022-10-21T22:53:55.077Z,63.94
2022-10-21T22:56:32.614Z,64.19
2022-10-21T22:59:04.744Z,64.22
2022-10-21T23:01:36.150Z,64.23
2022-10-21T23:04:08.046Z,64.25
2022-10-21T23:06:39.523Z,64.22
2022-10-21T23:09:11.081Z,64.14
2022-10-21T23:11:42.565Z,64.15
2022-10-21T23:14:14.116Z,64.13
2022-10-21T23:16:45.615Z,64.19
2022-10-21T23:19:18.039Z,64.23
2022-10-21T23:21:49.480Z,64.16
2022-10-21T23:24:20.937Z,64.22
2022-10-21T23:26:57.625Z,64.28
2022-10-21T23:29:32.709Z,64.44
2022-10-21T23:32:04.102Z,64.39
2022-10-21T23:34:35.556Z,64.45
2022-10-21T23:37:07.185Z,64.50
2022-10-21T23:39:38.799Z,64.60
2022-10-21T23:42:10.217Z,64.64
2022-10-21T23:44:41.603Z,64.71
2022-10-21T23:47:13.074Z,64.43
2022-10-21T23:49:44.495Z,64.61
2022-10-21T23:52:16.047Z,64.47
2022-10-21T23:54:47.490Z,64.38
2022-10-21T23:57:18.946Z,64.34
2022-10-21T23:59:50.416Z,64.36
